Portada
METAR-TAF:

METAR-TAF

Aeroports :

Barbacena, Minas Gerais, Brasil

latitud: 21-15S, longitud: 043-46W, altitud: 1171 m

Observació

L'informe es va fer fa 1 hora i 31 minuts, a les 23:00 UTC
Vent 6 kt del Nord-Est, variant entre Nord i Est
Temperatura 17°C
Humitat 77%
Pressió 1022 hPa
Visibilitat 10 km o més
sense núvols per sota de 1500 mi sense presència de cumulonimbus.

METAR: SBBQ 122300Z 04006KT 010V090 CAVOK 17/13 Q1022

Hora: 21:31 (00:31 UTC)


TAF: manca

Observacions i pronòstics meteorològics de més de 4000 aeroports (METAR i TAF).

Les estacions disponibles són els punts grocs i vermells al mapa.

Posi el ratolí al punt desitjat per veure el nom de l'estació.

Feu clic per veure les observacions i els pronòstics meteorològics.

Per canviar el mapa: feu clic els botons verds amb una creu de color negre per apropar; al botó verd amb un guió per allunyar la imatge; o en les fletxes verdes per a mapes adjacents.


METAR-TAF: